Time;durP1;ratioP1;P1;durP2;ratioP2;P2;SDS_P1;SDS_P2;PMS_P1;PMS_P2;Temp;Humidity;BMP_temperature;BMP_pressure;BME280_temperature;BME280_humidity;BME280_pressure;Samples;Min_cycle;Max_cycle;Signal;HPM_P1;HPM_P2
2021/11/10 00:01:24;;;;;;;33.20;26.30;;;;;;;0.44;88.80;102246.86;207260;1338;137718;-74
2021/11/10 00:06:47;;;;;;;31.80;25.80;;;;;;;0.33;88.98;102243.88;208877;1325;138195;-72
2021/11/10 00:12:02;;;;;;;33.80;26.00;;;;;;;0.33;89.42;102237.46;210110;1323;138359;-73
2021/11/10 00:17:08;;;;;;;35.20;26.90;;;;;;;0.37;89.20;102230.94;207414;1327;138194;-73
2021/11/10 00:22:19;;;;;;;36.50;26.40;;;;;;;0.38;89.14;102217.73;207831;1330;137793;-72
2021/11/10 00:27:21;;;;;;;31.60;26.50;;;;;;;0.35;89.35;102218.70;207152;1337;138418;-72
2021/11/10 00:32:23;;;;;;;34.10;25.40;;;;;;;0.31;89.42;102220.53;206503;1337;137747;-72
2021/11/10 00:37:25;;;;;;;40.00;28.50;;;;;;;0.24;89.61;102210.84;207795;1337;137881;-74
2021/11/10 00:47:38;;;;;;;37.00;27.70;;;;;;;0.25;89.76;102196.95;211091;1325;138372;-72
2021/11/10 00:57:51;;;;;;;38.10;28.80;;;;;;;0.37;89.63;102169.22;209944;1322;138545;-73
2021/11/10 01:02:53;;;;;;;34.70;26.90;;;;;;;0.35;89.21;102173.27;207132;1338;138185;-74
2021/11/10 01:07:56;;;;;;;36.90;28.70;;;;;;;0.29;89.66;102165.82;211294;1313;137967;-75
2021/11/10 01:13:04;;;;;;;39.50;27.00;;;;;;;0.31;89.81;102169.38;210187;1313;138425;-73
2021/11/10 01:18:10;;;;;;;34.30;26.00;;;;;;;0.36;89.63;102174.11;209055;1323;138556;-71
2021/11/10 01:23:14;;;;;;;35.10;27.50;;;;;;;0.36;89.54;102169.05;211373;1312;138285;-73
2021/11/10 01:28:15;;;;;;;29.10;23.90;;;;;;;0.34;89.43;102175.89;209840;1314;138124;-73
2021/11/10 01:38:34;;;;;;;33.50;26.00;;;;;;;0.14;90.19;102178.00;208935;1317;138269;-70
2021/11/10 01:43:41;;;;;;;35.40;26.20;;;;;;;0.15;90.18;102181.98;208662;1328;140063;-74
2021/11/10 01:48:42;;;;;;;33.30;24.20;;;;;;;0.11;89.86;102188.13;208898;1325;140243;-73
2021/11/10 01:53:48;;;;;;;30.40;23.00;;;;;;;0.09;90.12;102177.98;210158;1314;138343;-75
2021/11/10 01:58:50;;;;;;;36.80;27.30;;;;;;;0.10;90.10;102175.16;210152;1313;139018;-72
2021/11/10 02:03:53;;;;;;;34.60;25.00;;;;;;;0.04;90.04;102172.40;208912;1326;137790;-71
2021/11/10 02:08:54;;;;;;;37.50;26.00;;;;;;;-0.04;90.31;102171.22;209253;1315;137416;-72
2021/11/10 02:14:02;;;;;;;35.70;25.00;;;;;;;-0.06;90.41;102170.93;209816;1315;140534;-74
2021/11/10 02:24:19;;;;;;;32.10;24.10;;;;;;;-0.08;90.64;102168.91;211409;1313;138354;-71
2021/11/10 02:34:48;;;;;;;33.20;25.30;;;;;;;-0.02;90.15;102144.48;214547;1312;95227;-75
2021/11/10 02:40:14;;;;;;;32.90;24.50;;;;;;;-0.03;90.19;102150.39;211578;1312;138602;-73
2021/11/10 02:45:17;;;;;;;33.10;22.20;;;;;;;-0.05;90.14;102153.91;210275;1314;140306;-71
2021/11/10 02:50:19;;;;;;;33.50;23.90;;;;;;;-0.08;90.08;102150.88;209047;1327;138762;-74
2021/11/10 02:55:21;;;;;;;30.80;23.30;;;;;;;-0.07;90.05;102152.23;208091;1327;138791;-72
2021/11/10 03:00:25;;;;;;;32.80;23.50;;;;;;;-0.09;90.18;102149.35;209044;1328;138369;-73
2021/11/10 03:05:28;;;;;;;36.30;26.90;;;;;;;-0.10;90.16;102141.40;208320;1328;137915;-73
2021/11/10 03:10:33;;;;;;;34.20;26.00;;;;;;;-0.08;90.05;102142.75;208522;1328;139280;-76
2021/11/10 03:15:47;;;;;;;33.50;26.00;;;;;;;-0.06;90.07;102137.66;209514;1318;141392;-76
2021/11/10 03:20:51;;;;;;;37.20;27.10;;;;;;;0.07;90.26;102122.92;209711;1322;139028;-73
2021/11/10 03:25:56;;;;;;;34.40;28.10;;;;;;;0.17;89.65;102118.64;208806;1315;138701;-73
2021/11/10 03:31:07;;;;;;;36.00;28.20;;;;;;;0.15;89.48;102119.22;209169;1325;138332;-75
2021/11/10 03:36:09;;;;;;;36.30;27.00;;;;;;;0.11;89.58;102120.54;209267;1313;138792;-71
2021/11/10 03:41:13;;;;;;;34.50;26.90;;;;;;;0.16;89.66;102119.17;208713;1325;138784;-73
2021/11/10 03:46:21;;;;;;;36.70;27.00;;;;;;;0.20;89.31;102125.63;209897;1317;138496;-73
2021/11/10 03:56:49;;;;;;;36.40;27.40;;;;;;;0.16;89.54;102122.82;211736;1314;137789;-71
2021/11/10 04:01:51;;;;;;;35.20;27.80;;;;;;;0.12;89.50;102119.98;209397;1325;138021;-73
2021/11/10 04:07:06;;;;;;;34.60;25.50;;;;;;;0.09;89.75;102116.44;210240;1313;138870;31
2021/11/10 04:12:08;;;;;;;34.50;25.30;;;;;;;0.13;89.74;102115.81;209059;1317;138781;-71
2021/11/10 04:17:13;;;;;;;34.50;26.30;;;;;;;0.20;89.72;102103.83;208798;1328;138417;-73
2021/11/10 04:27:57;;;;;;;33.90;26.30;;;;;;;0.18;89.44;102086.73;211877;1313;137855;-73
2021/11/10 04:33:01;;;;;;;38.60;26.60;;;;;;;0.06;89.73;102086.37;213842;1325;138461;-72
2021/11/10 04:38:07;;;;;;;34.10;25.70;;;;;;;0.02;89.89;102082.86;214012;1328;139321;-70
2021/11/10 04:43:09;;;;;;;40.40;26.50;;;;;;;-0.03;90.08;102074.17;212696;1325;137938;-75
2021/11/10 04:48:11;;;;;;;35.60;26.60;;;;;;;0.02;89.89;102068.47;213744;1326;138584;-72
2021/11/10 04:53:13;;;;;;;36.20;26.30;;;;;;;0.06;89.82;102063.33;214223;1325;137630;-71
2021/11/10 04:58:15;;;;;;;33.30;24.50;;;;;;;0.01;89.51;102053.95;213346;1328;137096;-71
2021/11/10 05:03:17;;;;;;;36.00;27.30;;;;;;;-0.02;90.01;102052.30;214379;1312;138738;-73
2021/11/10 05:08:19;;;;;;;37.30;26.90;;;;;;;-0.05;90.16;102046.85;214375;1323;138427;-71
2021/11/10 05:13:26;;;;;;;36.20;25.70;;;;;;;-0.07;90.27;102042.23;214323;1313;138425;-71
2021/11/10 05:18:35;;;;;;;32.60;24.90;;;;;;;0.00;90.48;102041.67;213867;1326;139727;-73
2021/11/10 05:34:39;;;;;;;37.20;26.50;;;;;;;0.11;90.28;102017.41;214359;1315;137863;-71
2021/11/10 05:39:44;;;;;;;36.80;28.20;;;;;;;0.09;90.50;102011.27;213938;1328;138692;-72
2021/11/10 05:50:13;;;;;;;40.60;25.90;;;;;;;0.18;90.80;102010.30;213211;1316;139144;-72
2021/11/10 05:55:16;;;;;;;32.40;25.30;;;;;;;0.26;90.54;102019.04;212336;1332;139094;-73
2021/11/10 06:00:21;;;;;;;34.20;25.00;;;;;;;0.22;90.50;102023.68;213536;1316;138992;-71
2021/11/10 06:05:27;;;;;;;28.20;22.90;;;;;;;0.19;90.98;102033.13;214685;1313;137808;-71
2021/11/10 06:10:32;;;;;;;33.90;26.30;;;;;;;0.19;90.93;102035.05;214010;1325;138094;-71
2021/11/10 06:15:37;;;;;;;35.50;26.20;;;;;;;0.20;90.95;102035.88;214549;1313;137702;-71
2021/11/10 06:20:39;;;;;;;34.00;25.60;;;;;;;0.22;90.99;102034.95;213802;1313;138498;-70
2021/11/10 06:25:41;;;;;;;38.90;25.80;;;;;;;0.30;90.82;102033.86;213665;1327;138747;-71
2021/11/10 06:30:42;;;;;;;31.20;24.80;;;;;;;0.38;90.70;102038.97;213701;1323;138982;-70
2021/11/10 06:35:44;;;;;;;33.40;25.60;;;;;;;0.46;90.34;102041.15;214353;1315;138735;-72
2021/11/10 06:40:46;;;;;;;35.80;26.50;;;;;;;0.47;90.55;102036.80;212490;1330;138228;-71
2021/11/10 06:45:52;;;;;;;36.80;26.70;;;;;;;0.48;90.62;102039.19;213717;1328;138766;-72
2021/11/10 06:56:20;;;;;;;33.40;26.50;;;;;;;0.62;90.80;102038.04;213443;1314;138670;-70
2021/11/10 07:01:29;;;;;;;35.70;26.70;;;;;;;0.74;90.44;102032.11;214026;1315;138504;-72
2021/11/10 07:06:37;;;;;;;37.50;27.60;;;;;;;0.78;90.10;102025.92;212349;1328;140707;-70
2021/11/10 07:16:55;;;;;;;36.10;27.10;;;;;;;0.79;90.19;102031.11;214145;1313;138930;-73
2021/11/10 07:21:56;;;;;;;34.00;23.80;;;;;;;0.88;90.36;102028.20;213107;1326;138818;-71
2021/11/10 07:26:59;;;;;;;32.30;25.50;;;;;;;0.96;89.86;102026.88;213988;1326;139169;-71
2021/11/10 07:32:03;;;;;;;32.90;25.20;;;;;;;1.03;89.68;102036.17;213499;1322;280979;-72
2021/11/10 07:48:19;;;;;;;39.80;26.10;;;;;;;1.14;89.70;102027.14;212277;1320;138685;-71
2021/11/10 07:53:30;;;;;;;35.10;26.70;;;;;;;1.23;89.47;102024.90;212197;1318;138916;-74
2021/11/10 07:58:38;;;;;;;30.50;24.00;;;;;;;1.38;89.22;102023.88;212663;1321;138533;-73
2021/11/10 08:03:40;;;;;;;32.10;25.80;;;;;;;1.53;89.00;102022.11;212344;1318;139356;-60
2021/11/10 08:08:42;;;;;;;33.50;26.90;;;;;;;1.66;88.53;102025.98;213446;1319;138013;-70
2021/11/10 08:17:09;;;;;;;34.10;26.40;;;;;;;1.80;88.41;102018.02;206035;1348;635521;-70
2021/11/10 08:22:30;;;;;;;33.00;25.10;;;;;;;1.95;88.45;102018.67;209359;1326;138360;-72
2021/11/10 08:27:35;;;;;;;34.70;26.20;;;;;;;2.11;87.92;102024.83;206651;1332;254875;-71
2021/11/10 08:32:40;;;;;;;35.30;26.70;;;;;;;2.23;87.61;102021.10;208550;1334;137808;-70
2021/11/10 08:38:02;;;;;;;33.90;25.60;;;;;;;2.37;87.60;102012.89;209934;1321;138198;-75
2021/11/10 08:48:14;;;;;;;31.60;24.80;;;;;;;2.69;86.63;102012.81;210575;1320;138194;-70
2021/11/10 08:58:39;;;;;;;31.50;25.60;;;;;;;3.08;86.45;102000.91;207843;1335;138631;-70
2021/11/10 09:03:44;;;;;;;32.60;25.80;;;;;;;3.21;86.20;101985.90;211801;1321;138015;31
2021/11/10 09:08:46;;;;;;;31.70;24.50;;;;;;;3.40;85.78;101977.58;210143;1320;137725;-70
2021/11/10 09:13:52;;;;;;;33.30;22.90;;;;;;;3.63;84.85;101980.55;208176;1335;138254;-72
2021/11/10 09:19:03;;;;;;;30.10;24.80;;;;;;;3.87;84.23;101973.02;210636;1312;139802;-69
2021/11/10 09:29:29;;;;;;;28.70;23.40;;;;;;;4.22;83.26;101967.54;210283;1314;138463;-70
2021/11/10 09:34:36;;;;;;;28.60;23.20;;;;;;;4.35;83.12;101962.35;212041;1313;138010;-71
2021/11/10 09:39:45;;;;;;;26.30;21.50;;;;;;;4.52;83.44;101957.33;208494;1325;138783;-71
2021/11/10 09:44:54;;;;;;;26.40;21.60;;;;;;;4.72;82.56;101942.71;209758;1313;139154;-72
2021/11/10 09:58:32;;;;;;;21.40;19.00;;;;;;;5.18;81.54;101926.58;206085;1346;674477;-72
2021/11/10 10:03:36;;;;;;;25.90;20.10;;;;;;;5.37;80.81;101918.92;208005;1335;138903;-71
2021/11/10 10:14:08;;;;;;;20.50;18.10;;;;;;;5.80;80.41;101915.17;207925;1330;137720;-70
2021/11/10 10:19:13;;;;;;;21.20;17.90;;;;;;;6.07;77.93;101912.63;208303;1326;138154;-71
2021/11/10 10:24:23;;;;;;;20.80;17.90;;;;;;;6.14;77.61;101900.68;208057;1326;139326;-71
2021/11/10 10:54:06;;;;;;;20.10;17.50;;;;;;;8.11;72.41;101865.80;205541;1355;636202;-73
2021/11/10 11:07:50;;;;;;;18.60;16.50;;;;;;;16.15;47.99;101843.69;204817;1361;637050;-72
2021/11/10 11:12:54;;;;;;;19.20;17.10;;;;;;;17.41;44.13;101831.52;206875;1338;138777;-70
2021/11/10 11:17:56;;;;;;;18.40;16.60;;;;;;;18.78;40.38;101830.00;206330;1332;1785989;-71
2021/11/10 11:28:17;;;;;;;20.70;18.60;;;;;;;19.99;38.13;101810.31;208301;1323;138552;-72
2021/11/10 11:33:23;;;;;;;20.20;18.30;;;;;;;19.71;37.53;101802.36;207521;1334;138182;-71
2021/11/10 11:38:31;;;;;;;20.20;18.20;;;;;;;18.80;38.60;101791.67;208392;1323;138216;-70
2021/11/10 11:43:32;;;;;;;20.50;18.60;;;;;;;16.41;43.57;101779.98;209286;1320;138017;-67
2021/11/10 11:53:59;;;;;;;19.70;18.00;;;;;;;14.60;49.48;101767.79;211612;1321;139148;-71
2021/11/10 11:59:21;;;;;;;21.40;19.50;;;;;;;15.68;46.99;101753.86;208485;1335;140789;-70
2021/11/10 12:04:30;;;;;;;19.00;17.30;;;;;;;16.33;44.60;101748.93;208072;1338;139033;-71
2021/11/10 12:09:33;;;;;;;30.50;27.60;;;;;;;15.58;46.33;101744.88;206846;1333;138548;-71
2021/11/10 12:14:37;;;;;;;24.00;21.60;;;;;;;14.24;51.15;101732.69;207386;1332;138371;-71
2021/11/10 12:19:58;;;;;;;17.70;16.00;;;;;;;13.08;54.18;101720.73;208149;1335;138169;-71
2021/11/10 12:25:01;;;;;;;20.20;17.50;;;;;;;11.91;56.60;101722.19;209835;1323;138350;-70
2021/11/10 12:30:12;;;;;;;19.00;17.20;;;;;;;10.98;59.74;101711.52;209161;1325;139151;-71
2021/11/10 12:40:31;;;;;;;18.70;16.90;;;;;;;11.02;60.78;101720.20;211966;1312;137876;-70
2021/11/10 12:45:58;;;;;;;17.30;15.20;;;;;;;11.63;58.33;101704.48;209009;1325;138776;-71
2021/11/10 12:51:29;;;;;;;18.60;16.70;;;;;;;12.46;56.43;101700.96;209661;1313;139500;-72
2021/11/10 12:56:50;;;;;;;18.50;16.60;;;;;;;14.09;50.74;101683.77;211698;1314;138677;-72
2021/11/10 13:01:54;;;;;;;17.90;15.70;;;;;;;14.33;50.74;101673.86;209915;1315;138652;-72
2021/11/10 13:07:06;;;;;;;17.30;15.60;;;;;;;13.72;52.20;101672.17;208966;1328;138351;-74
2021/11/10 13:17:56;;;;;;;15.70;14.10;;;;;;;13.05;53.56;101660.41;212141;1314;140112;-71
2021/11/10 13:22:58;;;;;;;16.90;15.20;;;;;;;13.32;52.72;101659.36;208260;1325;138415;-69
2021/11/10 13:28:06;;;;;;;16.70;15.00;;;;;;;12.53;54.76;101663.55;209807;1315;138780;-67
2021/11/10 13:36:57;;;;;;;17.10;15.30;;;;;;;11.64;57.67;101651.80;205578;1352;637517;-69
2021/11/10 13:41:59;;;;;;;17.00;15.30;;;;;;;11.74;57.76;101646.91;209071;1322;138161;-72
2021/11/10 13:47:12;;;;;;;17.80;15.50;;;;;;;11.48;57.90;101643.20;207181;1322;1899196;-70
2021/11/10 13:57:43;;;;;;;14.80;13.30;;;;;;;10.12;62.30;101650.62;209180;1324;138409;-72
2021/11/10 14:02:51;;;;;;;16.90;13.80;;;;;;;9.85;63.28;101643.70;210729;1323;137996;-73
2021/11/10 14:07:52;;;;;;;15.50;13.10;;;;;;;9.59;64.27;101643.29;207752;1342;137960;-73
2021/11/10 14:12:59;;;;;;;16.40;12.90;;;;;;;9.38;64.83;101645.20;207443;1338;137784;-73
2021/11/10 14:18:10;;;;;;;14.00;12.50;;;;;;;9.20;65.69;101644.60;210751;1324;137630;-64
2021/11/10 14:23:35;;;;;;;12.80;11.50;;;;;;;9.03;66.66;101645.88;209633;1325;137793;-70
2021/11/10 14:28:42;;;;;;;14.80;12.30;;;;;;;8.89;67.02;101646.17;207838;1324;138014;-74
2021/11/10 14:33:49;;;;;;;14.80;11.60;;;;;;;8.74;67.84;101646.69;207628;1325;137854;-70
2021/11/10 14:38:53;;;;;;;12.50;11.20;;;;;;;8.59;68.70;101645.89;210424;1313;139302;-70
2021/11/10 14:43:59;;;;;;;13.70;11.40;;;;;;;8.44;69.17;101642.73;209909;1317;138342;-70
2021/11/10 14:49:24;;;;;;;14.40;12.50;;;;;;;8.31;69.66;101646.42;208555;1326;139409;-73
2021/11/10 14:54:54;;;;;;;15.80;12.80;;;;;;;8.15;70.27;101640.49;210195;1317;137888;-68
2021/11/10 15:00:11;;;;;;;17.00;13.50;;;;;;;8.01;70.92;101635.63;209213;1317;138261;-71
2021/11/10 15:05:17;;;;;;;15.10;12.20;;;;;;;7.89;71.97;101628.26;214633;1314;136610;-57
2021/11/10 15:10:24;;;;;;;15.60;13.40;;;;;;;7.77;72.93;101628.90;210051;1315;137721;-74
2021/11/10 15:15:29;;;;;;;19.30;14.80;;;;;;;7.64;73.08;101627.70;208676;1326;136727;-70
2021/11/10 15:25:49;;;;;;;17.00;13.50;;;;;;;7.48;74.16;101622.42;214110;1314;138368;-71
2021/11/10 15:36:09;;;;;;;17.50;15.00;;;;;;;7.24;75.98;101618.42;211720;1315;138093;-72
2021/11/10 15:41:19;;;;;;;18.30;15.10;;;;;;;7.10;76.72;101617.04;209366;1326;138147;-73
2021/11/10 15:46:27;;;;;;;16.40;14.40;;;;;;;7.04;77.00;101616.56;208931;1325;139140;-71
2021/11/10 15:51:34;;;;;;;17.80;14.90;;;;;;;6.99;77.33;101614.29;214436;1314;136725;-73
2021/11/10 15:56:36;;;;;;;;;;;;;;;6.94;77.29;101610.04;208649;1331;138007;-71
2021/11/10 16:01:38;;;;;;;23.00;16.90;;;;;;;6.90;77.49;101601.39;211297;1315;123877;-74
2021/11/10 16:06:41;;;;;;;23.30;18.00;;;;;;;6.89;77.67;101609.30;209576;1316;138984;-72
2021/11/10 16:11:46;;;;;;;21.10;18.00;;;;;;;6.92;77.35;101603.19;208811;1325;138687;-76
2021/11/10 16:22:25;;;;;;;22.70;17.90;;;;;;;6.67;78.45;101606.40;209574;1315;138015;-73
2021/11/10 16:27:42;;;;;;;20.60;18.40;;;;;;;6.61;78.58;101597.80;208274;1326;138141;-72
2021/11/10 16:32:56;;;;;;;24.40;18.30;;;;;;;6.57;78.67;101599.80;214320;1314;103574;-71
2021/11/10 16:38:36;;;;;;;;;;;;;;;;;;;;;
2021/11/10 16:43:54;;;;;;;27.30;20.40;;;;;;;6.36;79.43;101599.40;210936;1315;138367;-72
2021/11/10 16:49:03;;;;;;;22.60;18.70;;;;;;;6.23;79.91;101600.24;208947;1316;138237;-74
2021/11/10 16:54:10;;;;;;;28.20;20.80;;;;;;;6.16;80.04;101600.83;211399;1316;138585;-72
2021/11/10 16:59:11;;;;;;;24.90;20.70;;;;;;;6.12;80.24;101599.33;208279;1325;139061;-73
2021/11/10 17:04:14;;;;;;;28.00;22.80;;;;;;;6.07;80.42;101596.61;210217;1317;140099;-74
2021/11/10 17:09:16;;;;;;;27.20;22.90;;;;;;;5.99;80.44;101591.01;207445;1325;138885;-72
2021/11/10 17:14:18;;;;;;;28.10;22.50;;;;;;;5.91;81.10;101593.61;211568;1313;140126;-74
2021/11/10 17:19:22;;;;;;;31.00;23.20;;;;;;;5.90;81.05;101593.45;208364;1330;138861;-77
2021/11/10 17:24:28;;;;;;;28.10;22.60;;;;;;;5.88;81.13;101585.67;207349;1326;139840;-73
2021/11/10 17:29:30;;;;;;;26.20;22.50;;;;;;;5.84;81.27;101583.52;207306;1329;138716;-75
2021/11/10 17:34:32;;;;;;;34.60;25.20;;;;;;;5.80;81.33;101579.38;207988;1328;138394;-76
2021/11/10 17:39:37;;;;;;;35.10;25.10;;;;;;;5.74;81.45;101572.60;208049;1328;138333;-74
2021/11/10 17:44:40;;;;;;;36.10;27.30;;;;;;;5.69;81.72;101570.27;207231;1328;138504;-71
2021/11/10 17:49:48;;;;;;;37.20;27.60;;;;;;;5.64;81.69;101569.31;207130;1327;139112;-75
2021/11/10 17:54:50;;;;;;;37.40;27.10;;;;;;;5.63;81.76;101569.02;207857;1327;139182;-75
2021/11/10 17:59:52;;;;;;;34.90;25.70;;;;;;;5.64;81.80;101572.08;207069;1331;138917;-78
2021/11/10 18:04:53;;;;;;;38.20;29.20;;;;;;;5.58;81.83;101567.78;207987;1329;138084;-75
2021/11/10 18:09:55;;;;;;;39.60;29.10;;;;;;;5.53;81.74;101558.95;208460;1329;138587;-77
2021/11/10 18:14:57;;;;;;;43.50;30.80;;;;;;;5.46;81.85;101553.45;207713;1331;138747;-76
2021/11/10 18:19:59;;;;;;;40.10;28.40;;;;;;;5.41;82.12;101548.52;208023;1329;138445;-75
2021/11/10 18:25:00;;;;;;;49.50;31.90;;;;;;;5.37;82.21;101544.23;207426;1329;138369;-75
2021/11/10 18:30:06;;;;;;;43.00;29.70;;;;;;;5.35;82.10;101540.14;207673;1323;139400;-77
2021/11/10 18:35:14;;;;;;;39.10;27.80;;;;;;;5.34;81.91;101530.73;207576;1331;138405;-76
2021/11/10 18:40:18;;;;;;;40.00;30.20;;;;;;;5.35;81.85;101534.54;207630;1330;138139;-74
2021/11/10 18:45:19;;;;;;;36.80;28.50;;;;;;;5.35;81.44;101533.31;207824;1331;138832;-75
2021/11/10 18:50:23;;;;;;;32.80;27.70;;;;;;;5.30;81.38;101527.84;207422;1331;138547;-73
2021/11/10 18:55:25;;;;;;;30.40;24.60;;;;;;;5.30;81.03;101524.35;207826;1331;138151;-75
2021/11/10 19:00:28;;;;;;;32.80;25.50;;;;;;;5.31;81.03;101527.98;207080;1325;139024;-76
2021/11/10 19:05:33;;;;;;;32.70;26.00;;;;;;;5.29;80.99;101521.63;207760;1330;138938;-76
2021/11/10 19:16:29;;;;;;;33.80;25.20;;;;;;;5.34;80.20;101517.81;207919;1331;138478;-75
2021/11/10 19:21:15;;;;;;;27.70;23.60;;;;;;;5.30;80.04;101514.07;208217;1326;138140;-75
2021/11/10 19:26:21;;;;;;;29.50;24.10;;;;;;;5.25;80.19;101502.32;208354;1328;139060;-76
2021/11/10 19:31:28;;;;;;;33.10;25.20;;;;;;;5.19;79.95;101498.48;209001;1325;138972;-77
2021/11/10 19:36:30;;;;;;;35.00;27.60;;;;;;;5.12;80.02;101495.90;208612;1328;138747;-74
2021/11/10 19:41:36;;;;;;;34.00;26.90;;;;;;;5.10;80.17;101501.95;208681;1326;140063;-75
2021/11/10 19:46:43;;;;;;;33.60;26.60;;;;;;;5.06;80.02;101503.75;208964;1323;139233;-76
2021/11/10 19:51:45;;;;;;;29.70;22.20;;;;;;;5.02;80.09;101500.98;209275;1328;139029;-77
2021/11/10 19:56:48;;;;;;;28.80;22.60;;;;;;;5.03;80.04;101504.83;209073;1323;138675;-75
2021/11/10 20:01:49;;;;;;;30.80;24.20;;;;;;;4.95;80.36;101501.98;208316;1323;138893;-77
2021/11/10 20:06:51;;;;;;;34.10;26.20;;;;;;;4.86;80.47;101497.75;209527;1323;138110;-74
2021/11/10 20:11:53;;;;;;;33.60;26.10;;;;;;;4.83;80.75;101491.63;209262;1328;140175;-74
2021/11/10 20:16:54;;;;;;;29.90;23.50;;;;;;;4.84;80.72;101485.13;209740;1328;139338;-74
2021/11/10 20:21:56;;;;;;;32.90;25.50;;;;;;;4.86;80.66;101482.78;209444;1322;138102;-76
2021/11/10 20:26:58;;;;;;;35.00;27.40;;;;;;;4.80;80.80;101484.84;209066;1328;137944;-75
2021/11/10 20:32:02;;;;;;;47.20;32.00;;;;;;;4.74;80.93;101488.52;209264;1322;138149;-80
2021/11/10 20:37:11;;;;;;;45.90;31.80;;;;;;;4.65;81.16;101491.28;209542;1328;139420;-76
2021/11/10 20:42:20;;;;;;;35.40;26.30;;;;;;;4.60;81.39;101487.02;208956;1322;138688;-74
2021/11/10 20:47:23;;;;;;;33.40;25.00;;;;;;;4.63;81.43;101478.13;208707;1325;138822;-75
2021/11/10 20:52:24;;;;;;;32.20;25.00;;;;;;;4.64;81.37;101476.16;209323;1323;138198;-75
2021/11/10 20:57:26;;;;;;;33.60;25.30;;;;;;;4.68;81.20;101477.32;211583;1313;138284;-76
2021/11/10 21:02:28;;;;;;;33.10;24.00;;;;;;;4.72;81.04;101464.20;209283;1323;138712;-63
2021/11/10 21:07:31;;;;;;;30.60;23.60;;;;;;;4.72;81.29;101465.05;210366;1325;138414;-76
2021/11/10 21:12:41;;;;;;;30.30;23.50;;;;;;;4.73;81.10;101459.58;210658;1325;139369;-75
2021/11/10 21:17:46;;;;;;;30.80;23.20;;;;;;;4.72;81.17;101455.98;209955;1323;138642;-78
2021/11/10 21:22:49;;;;;;;30.00;23.40;;;;;;;4.70;81.45;101446.69;210239;1322;138538;-76
2021/11/10 21:27:51;;;;;;;28.80;22.30;;;;;;;4.68;81.52;101444.34;209044;1324;138416;-79
2021/11/10 21:32:53;;;;;;;28.60;22.90;;;;;;;4.70;81.42;101452.11;210066;1325;138907;-81
2021/11/10 21:37:55;;;;;;;25.00;19.40;;;;;;;4.69;81.48;101450.95;209597;1326;138442;-76
2021/11/10 21:42:57;;;;;;;29.00;22.10;;;;;;;4.68;81.52;101446.61;209421;1323;140261;-76
2021/11/10 21:47:59;;;;;;;30.50;23.90;;;;;;;4.65;81.61;101441.21;210478;1323;142543;-77
2021/11/10 21:53:01;;;;;;;29.60;23.00;;;;;;;4.61;81.69;101437.42;209972;1322;138159;-77
2021/11/10 21:58:06;;;;;;;29.00;23.00;;;;;;;4.55;81.92;101439.83;210520;1322;138316;-76
2021/11/10 22:03:15;;;;;;;32.60;23.00;;;;;;;4.52;81.86;101437.55;209346;1322;138856;-77
2021/11/10 22:08:21;;;;;;;30.70;22.60;;;;;;;4.47;82.03;101430.40;209561;1317;138971;-76
2021/11/10 22:13:26;;;;;;;33.20;25.80;;;;;;;4.46;82.17;101423.25;209765;1322;138771;-80
2021/11/10 22:18:30;;;;;;;29.20;22.30;;;;;;;4.44;82.26;101421.61;209864;1322;139121;-78
2021/11/10 22:23:41;;;;;;;30.00;24.50;;;;;;;4.41;82.34;101422.50;209525;1327;139002;-79
2021/11/10 22:28:46;;;;;;;29.20;22.50;;;;;;;4.38;82.62;101418.84;209302;1323;138913;-77
2021/11/10 22:33:48;;;;;;;30.40;21.90;;;;;;;4.38;82.59;101413.25;209564;1322;139684;-75
2021/11/10 22:38:50;;;;;;;33.00;23.20;;;;;;;4.41;82.66;101401.94;210355;1323;139487;-76
2021/11/10 22:43:51;;;;;;;33.70;26.20;;;;;;;4.43;82.47;101413.33;210722;1323;138905;-77
2021/11/10 22:48:54;;;;;;;31.00;23.90;;;;;;;4.39;82.28;101417.71;210113;1322;138982;-76
2021/11/10 22:53:56;;;;;;;31.40;24.30;;;;;;;4.36;82.61;101420.69;209423;1322;138425;-76
2021/11/10 22:58:57;;;;;;;27.50;21.50;;;;;;;4.33;82.74;101416.88;210740;1322;137850;-75
2021/11/10 23:19:53;;;;;;;31.30;23.80;;;;;;;4.41;82.57;101424.29;206353;1345;635983;-74
2021/11/10 23:24:54;;;;;;;30.30;24.50;;;;;;;4.35;82.65;101425.30;208508;1329;137987;-76
2021/11/10 23:29:57;;;;;;;34.90;25.60;;;;;;;4.32;82.74;101422.18;206607;1329;2388085;-77
2021/11/10 23:35:02;;;;;;;35.30;23.70;;;;;;;4.27;82.83;101418.98;209296;1325;137799;-77
2021/11/10 23:40:08;;;;;;;32.20;22.60;;;;;;;4.25;82.87;101419.58;209810;1326;137890;-77
2021/11/10 23:45:10;;;;;;;33.90;24.40;;;;;;;4.30;82.58;101422.45;209995;1324;139448;-78
2021/11/10 23:50:12;;;;;;;30.20;25.10;;;;;;;4.26;82.87;101424.80;209829;1323;138534;-78
2021/11/10 23:55:17;;;;;;;33.10;25.40;;;;;;;4.22;83.08;101418.04;210285;1326;137568;-75
